createdAt,value
2018-11-14T00:00:57.508Z,7.33
2018-11-14T00:03:26.757Z,7.13
2018-11-14T00:05:56.173Z,7.63
2018-11-14T00:09:38.772Z,6.80
2018-11-14T00:12:11.535Z,6.87
2018-11-14T00:14:40.605Z,8.20
2018-11-14T00:17:10.401Z,6.17
2018-11-14T00:19:40.008Z,6.50
2018-11-14T00:22:09.125Z,7.10
2018-11-14T00:24:57.035Z,8.03
2018-11-14T00:27:26.267Z,7.43
2018-11-14T00:29:55.317Z,7.10
2018-11-14T00:32:24.438Z,6.80
2018-11-14T00:35:00.131Z,8.30
2018-11-14T00:37:29.172Z,7.73
2018-11-14T00:40:00.675Z,6.80
2018-11-14T00:42:29.801Z,6.73
2018-11-14T00:45:01.071Z,7.10
2018-11-14T00:47:30.381Z,6.83
2018-11-14T00:49:59.485Z,7.80
2018-11-14T00:52:28.823Z,8.37
2018-11-14T00:54:57.960Z,7.40
2018-11-14T00:57:33.460Z,8.00
2018-11-14T01:00:02.634Z,7.13
2018-11-14T01:02:32.163Z,8.73
2018-11-14T01:05:01.221Z,8.57
2018-11-14T01:07:36.138Z,7.97
2018-11-14T01:10:07.738Z,9.10
2018-11-14T01:12:36.904Z,8.00
2018-11-14T01:15:08.980Z,10.50
2018-11-14T01:17:38.671Z,8.40
2018-11-14T01:20:10.109Z,10.37
2018-11-14T01:22:39.369Z,9.47
2018-11-14T01:25:35.510Z,11.40
2018-11-14T01:28:05.351Z,9.60
2018-11-14T01:30:34.430Z,9.03
2018-11-14T01:33:03.502Z,9.20
2018-11-14T01:38:38.814Z,8.50
2018-11-14T01:41:07.962Z,10.40
2018-11-14T01:43:37.044Z,9.27
2018-11-14T01:46:08.218Z,9.77
2018-11-14T01:48:43.411Z,10.90
2018-11-14T01:51:13.318Z,9.90
2018-11-14T01:57:12.420Z,9.95
2018-11-14T01:59:42.500Z,10.37
2018-11-14T02:02:14.740Z,10.77
2018-11-14T02:04:44.004Z,11.17
2018-11-14T02:07:15.450Z,13.30
2018-11-14T02:09:44.558Z,10.20
2018-11-14T02:12:13.739Z,10.80
2018-11-14T02:14:47.558Z,11.00
2018-11-14T02:17:48.148Z,12.33
2018-11-14T02:20:44.576Z,11.93
2018-11-14T02:23:14.230Z,12.73
2018-11-14T02:25:43.330Z,11.53
2018-11-14T02:28:12.354Z,11.37
2018-11-14T02:30:41.380Z,12.63
2018-11-14T02:33:21.689Z,13.80
2018-11-14T02:35:50.861Z,14.60
2018-11-14T02:38:20.973Z,14.27
2018-11-14T02:40:50.138Z,13.27
2018-11-14T02:46:07.524Z,13.70
2018-11-14T02:48:36.652Z,15.80
2018-11-14T02:52:06.572Z,15.33
2018-11-14T02:54:52.266Z,14.30
2018-11-14T02:57:21.429Z,15.20
2018-11-14T02:59:50.523Z,16.37
2018-11-14T03:02:19.580Z,15.30
2018-11-14T03:04:48.929Z,16.80
2018-11-14T03:07:18.107Z,16.47
2018-11-14T03:12:55.146Z,15.40
2018-11-14T03:15:24.276Z,18.90
2018-11-14T03:18:31.722Z,18.30
2018-11-14T03:21:00.909Z,18.13
2018-11-14T03:23:29.938Z,16.50
2018-11-14T03:29:10.257Z,17.95
2018-11-14T03:34:57.581Z,18.90
2018-11-14T03:37:29.325Z,19.30
2018-11-14T03:39:58.449Z,18.70
2018-11-14T03:45:47.171Z,19.55
2018-11-14T03:48:29.668Z,22.00
2018-11-14T03:50:58.868Z,19.07
2018-11-14T03:53:27.940Z,20.60
2018-11-14T03:56:01.979Z,18.27
2018-11-14T03:58:31.163Z,20.37
2018-11-14T04:01:00.233Z,19.20
2018-11-14T04:03:29.434Z,21.43
2018-11-14T04:05:58.469Z,20.90
2018-11-14T04:08:35.318Z,22.27
2018-11-14T04:24:39.076Z,21.40
2018-11-14T04:27:08.201Z,23.10
2018-11-14T04:29:37.453Z,23.03
2018-11-14T04:32:07.359Z,22.13
2018-11-14T04:34:36.521Z,24.50
2018-11-14T04:37:09.220Z,26.80
2018-11-14T04:39:38.355Z,24.97
2018-11-14T04:42:09.683Z,30.63
2018-11-14T04:45:44.231Z,31.40
2018-11-14T04:48:15.083Z,32.77
2018-11-14T04:51:10.487Z,33.53
2018-11-14T04:53:39.621Z,30.60
2018-11-14T04:56:13.975Z,37.73
2018-11-14T04:59:09.477Z,37.30
2018-11-14T05:01:44.585Z,37.50
2018-11-14T05:04:13.863Z,37.67
2018-11-14T05:06:43.159Z,38.50
2018-11-14T05:09:13.363Z,38.07
2018-11-14T05:11:42.815Z,35.80
2018-11-14T05:14:13.871Z,37.30
2018-11-14T05:17:25.374Z,40.73
2018-11-14T05:19:54.573Z,35.77
2018-11-14T05:22:23.678Z,36.50
2018-11-14T05:24:52.866Z,40.50
2018-11-14T05:27:22.091Z,40.10
2018-11-14T05:29:52.213Z,37.77
2018-11-14T05:32:46.580Z,38.73
2018-11-14T05:48:47.989Z,36.45
2018-11-14T05:51:17.331Z,39.23
2018-11-14T05:56:48.554Z,41.43
2018-11-14T05:59:50.099Z,38.57
2018-11-14T06:02:19.738Z,40.80
2018-11-14T06:04:54.016Z,42.27
2018-11-14T06:07:24.072Z,41.47
2018-11-14T06:09:53.771Z,42.70
2018-11-14T06:12:22.958Z,42.53
2018-11-14T06:14:54.362Z,44.80
2018-11-14T06:17:24.271Z,43.87
2018-11-14T06:19:54.737Z,43.80
2018-11-14T06:22:24.812Z,43.77
2018-11-14T06:24:54.133Z,45.60
2018-11-14T06:27:23.202Z,47.17
2018-11-14T06:29:52.358Z,46.03
2018-11-14T06:32:24.776Z,45.90
2018-11-14T06:34:56.840Z,46.17
2018-11-14T06:38:41.606Z,46.00
2018-11-14T06:41:33.358Z,44.60
2018-11-14T06:44:02.704Z,47.27
2018-11-14T06:49:31.697Z,46.47
2018-11-14T06:52:02.144Z,50.50
2018-11-14T06:54:31.377Z,49.60
2018-11-14T07:00:06.379Z,50.23
2018-11-14T07:02:38.337Z,47.27
2018-11-14T07:05:31.278Z,43.77
2018-11-14T07:08:30.478Z,43.10
2018-11-14T07:11:02.369Z,42.50
2018-11-14T07:13:34.266Z,43.63
2018-11-14T07:16:05.271Z,43.03
2018-11-14T07:18:34.642Z,43.97
2018-11-14T07:22:39.217Z,45.23
2018-11-14T07:25:32.999Z,39.30
2018-11-14T07:28:02.523Z,40.80
2018-11-14T07:33:31.113Z,40.67
2018-11-14T07:36:00.413Z,40.93
2018-11-14T07:38:38.649Z,40.80
2018-11-14T07:41:10.175Z,39.00
2018-11-14T07:43:39.898Z,38.47
2018-11-14T07:46:09.683Z,38.17
2018-11-14T07:48:39.452Z,37.83
2018-11-14T07:51:08.602Z,39.97
2018-11-14T07:53:37.767Z,39.53
2018-11-14T07:56:06.950Z,36.13
2018-11-14T07:58:36.334Z,36.93
2018-11-14T08:01:05.729Z,36.00
2018-11-14T08:03:34.797Z,37.90
2018-11-14T08:06:16.106Z,37.63
2018-11-14T08:08:45.609Z,36.43
2018-11-14T08:11:18.952Z,41.20
2018-11-14T08:13:49.218Z,39.07
2018-11-14T08:22:18.609Z,37.90
2018-11-14T08:24:48.120Z,38.13
2018-11-14T08:43:08.030Z,37.20
2018-11-14T08:45:53.397Z,36.67
2018-11-14T08:48:25.754Z,36.00
2018-11-14T09:23:39.757Z,36.93
2018-11-14T09:26:24.027Z,34.53
2018-11-14T09:29:42.111Z,35.50
2018-11-14T09:32:17.187Z,35.17
2018-11-14T09:34:46.529Z,33.77
2018-11-14T09:38:01.813Z,35.50
2018-11-14T09:40:31.702Z,34.60
2018-11-14T09:43:01.448Z,32.80
2018-11-14T09:45:31.288Z,36.87
2018-11-14T09:56:33.450Z,32.80
2018-11-14T09:59:05.716Z,34.73
2018-11-14T10:11:46.690Z,33.40
2018-11-14T10:17:32.056Z,29.67
2018-11-14T10:20:12.555Z,27.60
2018-11-14T10:25:55.138Z,30.33
2018-11-14T10:28:30.221Z,27.27
2018-11-14T10:34:19.344Z,27.80
2018-11-14T10:36:51.652Z,28.07
2018-11-14T10:39:20.716Z,29.90
2018-11-14T10:41:49.835Z,30.43
2018-11-14T10:44:19.259Z,28.87
2018-11-14T10:46:48.657Z,29.80
2018-11-14T10:52:44.570Z,28.20
2018-11-14T10:58:09.895Z,28.20
2018-11-14T11:10:12.541Z,26.57
2018-11-14T11:13:07.884Z,27.73
2018-11-14T11:18:20.884Z,26.80
2018-11-14T11:42:54.969Z,24.90
2018-11-14T11:45:24.286Z,25.27
2018-11-14T12:46:51.916Z,28.13
2018-11-14T12:49:31.168Z,27.30
2018-11-14T14:29:08.106Z,33.88
2018-11-14T14:39:06.746Z,32.47
2018-11-14T14:41:39.356Z,30.63
2018-11-14T14:44:16.947Z,28.73
2018-11-14T14:47:42.334Z,30.80
2018-11-14T14:50:45.345Z,27.47
2018-11-14T15:38:15.077Z,24.77
2018-11-14T15:50:07.255Z,21.97
